sensor_id;sensor_type;location;lat;lon;timestamp;temperature;humidity
26745;DHT22;14342;50.960;13.880;2023-09-19T00:00:21;19.10;99.90
26745;DHT22;14342;50.960;13.880;2023-09-19T00:01:22;19.20;99.90
26745;DHT22;14342;50.960;13.880;2023-09-19T00:02:24;19.20;99.90
26745;DHT22;14342;50.960;13.880;2023-09-19T00:03:25;19.20;99.90
26745;DHT22;14342;50.960;13.880;2023-09-19T00:04:26;19.20;99.90
26745;DHT22;14342;50.960;13.880;2023-09-19T00:05:29;19.20;99.90
26745;DHT22;14342;50.960;13.880;2023-09-19T00:06:35;19.20;99.90
26745;DHT22;14342;50.960;13.880;2023-09-19T00:07:36;19.20;99.90
26745;DHT22;14342;50.960;13.880;2023-09-19T00:08:37;19.20;99.90
26745;DHT22;14342;50.960;13.880;2023-09-19T00:09:39;19.20;99.90
26745;DHT22;14342;50.960;13.880;2023-09-19T00:10:40;19.20;99.90
26745;DHT22;14342;50.960;13.880;2023-09-19T00:11:41;19.20;99.90
26745;DHT22;14342;50.960;13.880;2023-09-19T00:12:46;19.20;99.90
26745;DHT22;14342;50.960;13.880;2023-09-19T00:13:47;19.20;99.90
26745;DHT22;14342;50.960;13.880;2023-09-19T00:14:50;19.20;99.90
26745;DHT22;14342;50.960;13.880;2023-09-19T00:15:51;19.20;99.90
26745;DHT22;14342;50.960;13.880;2023-09-19T00:16:55;19.20;99.90
26745;DHT22;14342;50.960;13.880;2023-09-19T00:17:56;19.20;99.90
26745;DHT22;14342;50.960;13.880;2023-09-19T00:18:58;19.20;99.90
26745;DHT22;14342;50.960;13.880;2023-09-19T00:19:59;19.20;99.90
26745;DHT22;14342;50.960;13.880;2023-09-19T00:21:07;19.20;99.90
26745;DHT22;14342;50.960;13.880;2023-09-19T00:22:08;19.20;99.90
26745;DHT22;14342;50.960;13.880;2023-09-19T00:23:08;19.20;99.90
26745;DHT22;14342;50.960;13.880;2023-09-19T00:24:10;19.20;99.90
26745;DHT22;14342;50.960;13.880;2023-09-19T00:25:12;19.20;99.90
26745;DHT22;14342;50.960;13.880;2023-09-19T00:26:15;19.20;99.90
26745;DHT22;14342;50.960;13.880;2023-09-19T00:27:18;19.20;99.90
26745;DHT22;14342;50.960;13.880;2023-09-19T00:28:21;19.20;99.90
26745;DHT22;14342;50.960;13.880;2023-09-19T00:29:21;19.20;99.90
26745;DHT22;14342;50.960;13.880;2023-09-19T00:30:23;19.20;99.90
26745;DHT22;14342;50.960;13.880;2023-09-19T00:31:24;19.20;99.90
26745;DHT22;14342;50.960;13.880;2023-09-19T00:32:26;19.20;99.90
26745;DHT22;14342;50.960;13.880;2023-09-19T00:33:31;19.20;99.90
26745;DHT22;14342;50.960;13.880;2023-09-19T00:34:33;19.20;99.90
26745;DHT22;14342;50.960;13.880;2023-09-19T00:35:34;19.20;99.90
26745;DHT22;14342;50.960;13.880;2023-09-19T00:36:35;19.20;99.90
26745;DHT22;14342;50.960;13.880;2023-09-19T00:37:38;19.20;99.90
26745;DHT22;14342;50.960;13.880;2023-09-19T00:38:40;19.20;99.90
26745;DHT22;14342;50.960;13.880;2023-09-19T00:39:41;19.20;99.90
26745;DHT22;14342;50.960;13.880;2023-09-19T00:40:43;19.10;99.90
26745;DHT22;14342;50.960;13.880;2023-09-19T00:41:45;19.00;99.90
26745;DHT22;14342;50.960;13.880;2023-09-19T00:42:46;18.90;99.90
26745;DHT22;14342;50.960;13.880;2023-09-19T00:43:49;18.90;99.90
26745;DHT22;14342;50.960;13.880;2023-09-19T00:44:50;19.00;99.90
26745;DHT22;14342;50.960;13.880;2023-09-19T00:45:52;18.80;99.90
26745;DHT22;14342;50.960;13.880;2023-09-19T00:46:53;18.80;99.90
26745;DHT22;14342;50.960;13.880;2023-09-19T00:47:55;18.70;99.90
26745;DHT22;14342;50.960;13.880;2023-09-19T00:48:56;18.70;99.90
26745;DHT22;14342;50.960;13.880;2023-09-19T00:49:57;18.70;99.90
26745;DHT22;14342;50.960;13.880;2023-09-19T00:51:01;18.70;99.90
26745;DHT22;14342;50.960;13.880;2023-09-19T00:52:02;18.70;99.90
26745;DHT22;14342;50.960;13.880;2023-09-19T00:53:06;18.70;99.90
26745;DHT22;14342;50.960;13.880;2023-09-19T00:54:08;18.70;99.90
26745;DHT22;14342;50.960;13.880;2023-09-19T00:55:10;18.80;99.90
26745;DHT22;14342;50.960;13.880;2023-09-19T00:56:11;18.80;99.90
26745;DHT22;14342;50.960;13.880;2023-09-19T00:57:13;18.80;99.90
26745;DHT22;14342;50.960;13.880;2023-09-19T00:58:15;18.90;99.90
26745;DHT22;14342;50.960;13.880;2023-09-19T00:59:19;18.90;99.90
26745;DHT22;14342;50.960;13.880;2023-09-19T01:00:19;18.90;99.90
26745;DHT22;14342;50.960;13.880;2023-09-19T01:01:21;18.90;99.90
26745;DHT22;14342;50.960;13.880;2023-09-19T01:02:22;18.90;99.90
26745;DHT22;14342;50.960;13.880;2023-09-19T01:03:23;18.90;99.90
26745;DHT22;14342;50.960;13.880;2023-09-19T01:04:24;18.80;99.90
26745;DHT22;14342;50.960;13.880;2023-09-19T01:05:28;18.60;99.90
26745;DHT22;14342;50.960;13.880;2023-09-19T01:06:30;18.40;99.90
26745;DHT22;14342;50.960;13.880;2023-09-19T01:07:32;18.30;99.90
26745;DHT22;14342;50.960;13.880;2023-09-19T01:08:33;18.30;99.90
26745;DHT22;14342;50.960;13.880;2023-09-19T01:09:36;18.40;99.90
26745;DHT22;14342;50.960;13.880;2023-09-19T01:10:37;18.50;99.90
26745;DHT22;14342;50.960;13.880;2023-09-19T01:11:46;18.50;99.90
26745;DHT22;14342;50.960;13.880;2023-09-19T01:12:48;18.60;99.90
26745;DHT22;14342;50.960;13.880;2023-09-19T01:13:55;18.60;99.90
26745;DHT22;14342;50.960;13.880;2023-09-19T01:14:59;18.50;99.90
26745;DHT22;14342;50.960;13.880;2023-09-19T01:16:07;18.60;99.90
26745;DHT22;14342;50.960;13.880;2023-09-19T01:17:14;18.50;99.90
26745;DHT22;14342;50.960;13.880;2023-09-19T01:18:21;18.50;99.90
26745;DHT22;14342;50.960;13.880;2023-09-19T01:19:38;18.50;99.90
26745;DHT22;14342;50.960;13.880;2023-09-19T01:20:44;18.50;99.90
26745;DHT22;14342;50.960;13.880;2023-09-19T01:21:50;18.40;99.90
26745;DHT22;14342;50.960;13.880;2023-09-19T01:23:01;18.30;99.90
26745;DHT22;14342;50.960;13.880;2023-09-19T01:27:02;18.30;99.90
26745;DHT22;14342;50.960;13.880;2023-09-19T01:28:10;18.40;99.90
26745;DHT22;14342;50.960;13.880;2023-09-19T01:29:17;18.40;99.90
26745;DHT22;14342;50.960;13.880;2023-09-19T01:30:31;18.50;99.90
26745;DHT22;14342;50.960;13.880;2023-09-19T01:31:33;18.60;99.90
26745;DHT22;14342;50.960;13.880;2023-09-19T01:32:36;18.60;99.90
26745;DHT22;14342;50.960;13.880;2023-09-19T01:33:54;18.60;99.90
26745;DHT22;14342;50.960;13.880;2023-09-19T01:34:57;18.70;99.90
26745;DHT22;14342;50.960;13.880;2023-09-19T01:36:04;18.60;99.90
26745;DHT22;14342;50.960;13.880;2023-09-19T01:37:06;18.60;99.90
26745;DHT22;14342;50.960;13.880;2023-09-19T01:38:06;18.50;99.90
26745;DHT22;14342;50.960;13.880;2023-09-19T01:39:10;18.60;99.90
26745;DHT22;14342;50.960;13.880;2023-09-19T01:40:14;18.60;99.90
26745;DHT22;14342;50.960;13.880;2023-09-19T01:41:21;18.60;99.90
26745;DHT22;14342;50.960;13.880;2023-09-19T01:42:26;18.60;99.90
26745;DHT22;14342;50.960;13.880;2023-09-19T01:43:32;18.60;99.90
26745;DHT22;14342;50.960;13.880;2023-09-19T01:44:36;18.60;99.90
26745;DHT22;14342;50.960;13.880;2023-09-19T01:45:46;18.60;99.90
26745;DHT22;14342;50.960;13.880;2023-09-19T01:46:47;18.60;99.90
26745;DHT22;14342;50.960;13.880;2023-09-19T01:47:49;18.70;99.90
26745;DHT22;14342;50.960;13.880;2023-09-19T01:48:54;18.70;99.90
26745;DHT22;14342;50.960;13.880;2023-09-19T01:50:00;18.70;99.90
26745;DHT22;14342;50.960;13.880;2023-09-19T01:51:05;18.80;99.90
26745;DHT22;14342;50.960;13.880;2023-09-19T01:52:09;18.80;99.90
26745;DHT22;14342;50.960;13.880;2023-09-19T01:53:14;18.80;99.90
26745;DHT22;14342;50.960;13.880;2023-09-19T01:54:18;18.80;99.90
26745;DHT22;14342;50.960;13.880;2023-09-19T01:55:22;18.80;99.90
26745;DHT22;14342;50.960;13.880;2023-09-19T01:56:29;18.80;99.90
26745;DHT22;14342;50.960;13.880;2023-09-19T01:57:37;18.80;99.90
26745;DHT22;14342;50.960;13.880;2023-09-19T01:58:42;18.80;99.90
26745;DHT22;14342;50.960;13.880;2023-09-19T01:59:48;18.80;99.90
26745;DHT22;14342;50.960;13.880;2023-09-19T02:00:53;18.80;99.90
26745;DHT22;14342;50.960;13.880;2023-09-19T02:01:55;18.80;99.90
26745;DHT22;14342;50.960;13.880;2023-09-19T02:02:58;18.80;99.90
26745;DHT22;14342;50.960;13.880;2023-09-19T02:03:59;18.80;99.90
26745;DHT22;14342;50.960;13.880;2023-09-19T02:05:01;18.80;99.90
26745;DHT22;14342;50.960;13.880;2023-09-19T02:06:02;18.80;99.90
26745;DHT22;14342;50.960;13.880;2023-09-19T02:07:05;18.80;99.90
26745;DHT22;14342;50.960;13.880;2023-09-19T02:08:06;18.70;99.90
26745;DHT22;14342;50.960;13.880;2023-09-19T02:09:07;18.70;99.90
26745;DHT22;14342;50.960;13.880;2023-09-19T02:10:09;18.80;99.90
26745;DHT22;14342;50.960;13.880;2023-09-19T02:11:12;18.80;99.90
26745;DHT22;14342;50.960;13.880;2023-09-19T02:12:13;18.80;99.90
26745;DHT22;14342;50.960;13.880;2023-09-19T02:13:15;18.80;99.90
26745;DHT22;14342;50.960;13.880;2023-09-19T02:14:19;18.80;99.90
26745;DHT22;14342;50.960;13.880;2023-09-19T02:15:20;18.80;99.90
26745;DHT22;14342;50.960;13.880;2023-09-19T02:16:24;18.80;99.90
26745;DHT22;14342;50.960;13.880;2023-09-19T02:17:24;18.80;99.90
26745;DHT22;14342;50.960;13.880;2023-09-19T02:18:26;18.80;99.90
26745;DHT22;14342;50.960;13.880;2023-09-19T02:19:28;18.80;99.90
26745;DHT22;14342;50.960;13.880;2023-09-19T02:20:30;18.80;99.90
26745;DHT22;14342;50.960;13.880;2023-09-19T02:21:33;18.80;99.90
26745;DHT22;14342;50.960;13.880;2023-09-19T02:22:34;18.80;99.90
26745;DHT22;14342;50.960;13.880;2023-09-19T02:23:35;18.80;99.90
26745;DHT22;14342;50.960;13.880;2023-09-19T02:24:37;18.70;99.90
26745;DHT22;14342;50.960;13.880;2023-09-19T02:25:38;18.70;99.90
26745;DHT22;14342;50.960;13.880;2023-09-19T02:26:40;18.70;99.90
26745;DHT22;14342;50.960;13.880;2023-09-19T02:27:41;18.70;99.90
26745;DHT22;14342;50.960;13.880;2023-09-19T02:28:42;18.80;99.90
26745;DHT22;14342;50.960;13.880;2023-09-19T02:29:45;18.80;99.90
26745;DHT22;14342;50.960;13.880;2023-09-19T02:30:47;18.80;99.90
26745;DHT22;14342;50.960;13.880;2023-09-19T02:31:50;18.80;99.90
26745;DHT22;14342;50.960;13.880;2023-09-19T02:32:51;18.80;99.90
26745;DHT22;14342;50.960;13.880;2023-09-19T02:33:52;18.80;99.90
26745;DHT22;14342;50.960;13.880;2023-09-19T02:34:53;18.80;99.90
26745;DHT22;14342;50.960;13.880;2023-09-19T02:35:55;18.80;99.90
26745;DHT22;14342;50.960;13.880;2023-09-19T02:36:57;18.80;99.90
26745;DHT22;14342;50.960;13.880;2023-09-19T02:37:59;18.80;99.90
26745;DHT22;14342;50.960;13.880;2023-09-19T02:39:00;19.00;99.90
26745;DHT22;14342;50.960;13.880;2023-09-19T02:40:01;18.80;99.90
26745;DHT22;14342;50.960;13.880;2023-09-19T02:41:02;18.80;99.90
26745;DHT22;14342;50.960;13.880;2023-09-19T02:42:04;18.80;99.90
26745;DHT22;14342;50.960;13.880;2023-09-19T02:43:05;18.80;99.90
26745;DHT22;14342;50.960;13.880;2023-09-19T02:44:08;18.80;99.90
26745;DHT22;14342;50.960;13.880;2023-09-19T02:45:09;18.80;99.90
26745;DHT22;14342;50.960;13.880;2023-09-19T02:46:11;18.80;99.90
26745;DHT22;14342;50.960;13.880;2023-09-19T02:47:14;18.80;99.90
26745;DHT22;14342;50.960;13.880;2023-09-19T02:48:17;18.80;99.90
26745;DHT22;14342;50.960;13.880;2023-09-19T02:49:18;18.80;99.90
26745;DHT22;14342;50.960;13.880;2023-09-19T02:50:20;18.80;99.90
26745;DHT22;14342;50.960;13.880;2023-09-19T02:51:21;18.80;99.90
26745;DHT22;14342;50.960;13.880;2023-09-19T02:52:21;18.80;99.90
26745;DHT22;14342;50.960;13.880;2023-09-19T02:53:25;18.80;99.90
26745;DHT22;14342;50.960;13.880;2023-09-19T02:54:25;18.80;99.90
26745;DHT22;14342;50.960;13.880;2023-09-19T02:55:27;18.80;99.90
26745;DHT22;14342;50.960;13.880;2023-09-19T02:56:28;18.80;99.90
26745;DHT22;14342;50.960;13.880;2023-09-19T02:57:31;18.80;99.90
26745;DHT22;14342;50.960;13.880;2023-09-19T02:58:34;18.90;99.90
26745;DHT22;14342;50.960;13.880;2023-09-19T02:59:36;18.90;99.90
26745;DHT22;14342;50.960;13.880;2023-09-19T03:00:37;18.90;99.90
26745;DHT22;14342;50.960;13.880;2023-09-19T03:01:39;18.90;99.90
26745;DHT22;14342;50.960;13.880;2023-09-19T03:02:41;18.90;99.90
26745;DHT22;14342;50.960;13.880;2023-09-19T03:03:42;18.90;99.90
26745;DHT22;14342;50.960;13.880;2023-09-19T03:04:43;18.90;99.90
26745;DHT22;14342;50.960;13.880;2023-09-19T03:05:45;18.90;99.90
26745;DHT22;14342;50.960;13.880;2023-09-19T03:06:47;19.00;99.90
26745;DHT22;14342;50.960;13.880;2023-09-19T03:07:49;19.00;99.90
26745;DHT22;14342;50.960;13.880;2023-09-19T03:08:51;18.90;99.90
26745;DHT22;14342;50.960;13.880;2023-09-19T03:09:52;18.90;99.90
26745;DHT22;14342;50.960;13.880;2023-09-19T03:10:53;18.90;99.90
26745;DHT22;14342;50.960;13.880;2023-09-19T03:11:54;18.90;99.90
26745;DHT22;14342;50.960;13.880;2023-09-19T03:12:55;18.90;99.90
26745;DHT22;14342;50.960;13.880;2023-09-19T03:13:57;18.90;99.90
26745;DHT22;14342;50.960;13.880;2023-09-19T03:14:58;18.90;99.90
26745;DHT22;14342;50.960;13.880;2023-09-19T03:16:00;18.90;99.90
26745;DHT22;14342;50.960;13.880;2023-09-19T03:17:00;18.90;99.90
26745;DHT22;14342;50.960;13.880;2023-09-19T03:18:06;18.90;99.90
26745;DHT22;14342;50.960;13.880;2023-09-19T03:19:06;18.90;99.90
26745;DHT22;14342;50.960;13.880;2023-09-19T03:20:11;18.90;99.90
26745;DHT22;14342;50.960;13.880;2023-09-19T03:21:13;18.70;99.90
26745;DHT22;14342;50.960;13.880;2023-09-19T03:22:14;18.70;99.90
26745;DHT22;14342;50.960;13.880;2023-09-19T03:23:16;18.70;99.90
26745;DHT22;14342;50.960;13.880;2023-09-19T03:24:17;18.70;99.90
26745;DHT22;14342;50.960;13.880;2023-09-19T03:25:19;18.70;99.90
26745;DHT22;14342;50.960;13.880;2023-09-19T03:26:20;18.60;99.90
26745;DHT22;14342;50.960;13.880;2023-09-19T03:27:20;18.60;99.90
26745;DHT22;14342;50.960;13.880;2023-09-19T03:28:22;18.70;99.90
26745;DHT22;14342;50.960;13.880;2023-09-19T03:29:23;18.70;99.90
26745;DHT22;14342;50.960;13.880;2023-09-19T03:30:25;18.60;99.90
26745;DHT22;14342;50.960;13.880;2023-09-19T03:31:26;18.60;99.90
26745;DHT22;14342;50.960;13.880;2023-09-19T03:32:28;18.60;99.90
26745;DHT22;14342;50.960;13.880;2023-09-19T03:33:30;18.40;99.90
26745;DHT22;14342;50.960;13.880;2023-09-19T03:34:33;18.40;99.90
26745;DHT22;14342;50.960;13.880;2023-09-19T03:35:33;18.40;99.90
26745;DHT22;14342;50.960;13.880;2023-09-19T03:36:37;18.30;99.90
26745;DHT22;14342;50.960;13.880;2023-09-19T03:37:38;18.30;99.90
26745;DHT22;14342;50.960;13.880;2023-09-19T03:38:39;18.40;99.90
26745;DHT22;14342;50.960;13.880;2023-09-19T03:39:41;18.40;99.90
26745;DHT22;14342;50.960;13.880;2023-09-19T03:40:41;18.50;99.90
26745;DHT22;14342;50.960;13.880;2023-09-19T03:41:45;18.50;99.90
26745;DHT22;14342;50.960;13.880;2023-09-19T03:42:45;18.50;99.90
26745;DHT22;14342;50.960;13.880;2023-09-19T03:43:48;18.50;99.90
26745;DHT22;14342;50.960;13.880;2023-09-19T03:44:49;18.60;99.90
26745;DHT22;14342;50.960;13.880;2023-09-19T03:45:52;18.60;99.90
26745;DHT22;14342;50.960;13.880;2023-09-19T03:46:54;18.60;99.90
26745;DHT22;14342;50.960;13.880;2023-09-19T03:47:57;18.60;99.90
26745;DHT22;14342;50.960;13.880;2023-09-19T03:48:59;18.50;99.90
26745;DHT22;14342;50.960;13.880;2023-09-19T03:50:00;18.60;99.90
26745;DHT22;14342;50.960;13.880;2023-09-19T03:51:01;18.60;99.90
26745;DHT22;14342;50.960;13.880;2023-09-19T03:52:03;18.60;99.90
26745;DHT22;14342;50.960;13.880;2023-09-19T03:53:04;18.70;99.90
26745;DHT22;14342;50.960;13.880;2023-09-19T03:54:07;18.80;99.90
26745;DHT22;14342;50.960;13.880;2023-09-19T03:55:08;18.90;99.90
26745;DHT22;14342;50.960;13.880;2023-09-19T03:56:10;18.90;99.90
26745;DHT22;14342;50.960;13.880;2023-09-19T03:57:10;19.00;99.90
26745;DHT22;14342;50.960;13.880;2023-09-19T03:58:16;19.00;99.90
26745;DHT22;14342;50.960;13.880;2023-09-19T03:59:16;18.80;99.90
26745;DHT22;14342;50.960;13.880;2023-09-19T04:00:18;19.00;99.90
26745;DHT22;14342;50.960;13.880;2023-09-19T04:01:21;19.00;99.90
26745;DHT22;14342;50.960;13.880;2023-09-19T04:02:23;19.10;99.90
26745;DHT22;14342;50.960;13.880;2023-09-19T04:03:24;19.00;99.90
26745;DHT22;14342;50.960;13.880;2023-09-19T04:04:36;18.80;99.90
26745;DHT22;14342;50.960;13.880;2023-09-19T04:05:37;18.80;99.90
26745;DHT22;14342;50.960;13.880;2023-09-19T04:06:38;18.70;99.90
26745;DHT22;14342;50.960;13.880;2023-09-19T04:07:39;18.70;99.90
26745;DHT22;14342;50.960;13.880;2023-09-19T04:08:40;18.80;99.90
26745;DHT22;14342;50.960;13.880;2023-09-19T04:09:41;18.80;99.90
26745;DHT22;14342;50.960;13.880;2023-09-19T04:10:42;18.80;99.90
26745;DHT22;14342;50.960;13.880;2023-09-19T04:11:44;18.90;99.90
26745;DHT22;14342;50.960;13.880;2023-09-19T04:12:51;18.90;99.90
26745;DHT22;14342;50.960;13.880;2023-09-19T04:13:53;18.90;99.90
26745;DHT22;14342;50.960;13.880;2023-09-19T04:14:55;19.00;99.90
26745;DHT22;14342;50.960;13.880;2023-09-19T04:15:55;19.00;99.90
26745;DHT22;14342;50.960;13.880;2023-09-19T04:16:57;19.00;99.90
26745;DHT22;14342;50.960;13.880;2023-09-19T04:17:57;19.00;99.90
26745;DHT22;14342;50.960;13.880;2023-09-19T04:19:00;19.00;99.90
26745;DHT22;14342;50.960;13.880;2023-09-19T04:20:02;19.00;99.90
26745;DHT22;14342;50.960;13.880;2023-09-19T04:21:07;19.00;99.90
26745;DHT22;14342;50.960;13.880;2023-09-19T04:22:08;19.00;99.90
26745;DHT22;14342;50.960;13.880;2023-09-19T04:23:09;19.00;99.90
26745;DHT22;14342;50.960;13.880;2023-09-19T04:24:11;19.00;99.90
26745;DHT22;14342;50.960;13.880;2023-09-19T04:25:13;19.20;99.90
26745;DHT22;14342;50.960;13.880;2023-09-19T04:26:14;18.90;99.90
26745;DHT22;14342;50.960;13.880;2023-09-19T04:27:18;18.90;99.90
26745;DHT22;14342;50.960;13.880;2023-09-19T04:28:19;18.90;99.90
26745;DHT22;14342;50.960;13.880;2023-09-19T04:29:19;19.00;99.90
26745;DHT22;14342;50.960;13.880;2023-09-19T04:30:21;18.90;99.90
26745;DHT22;14342;50.960;13.880;2023-09-19T04:31:22;19.00;99.90
26745;DHT22;14342;50.960;13.880;2023-09-19T04:32:23;18.90;99.90
26745;DHT22;14342;50.960;13.880;2023-09-19T04:33:24;18.80;99.90
26745;DHT22;14342;50.960;13.880;2023-09-19T04:34:27;18.80;99.90
26745;DHT22;14342;50.960;13.880;2023-09-19T04:35:29;18.90;99.90
26745;DHT22;14342;50.960;13.880;2023-09-19T04:36:31;18.90;99.90
26745;DHT22;14342;50.960;13.880;2023-09-19T04:37:32;18.90;99.90
26745;DHT22;14342;50.960;13.880;2023-09-19T04:38:34;18.80;99.90
26745;DHT22;14342;50.960;13.880;2023-09-19T04:39:34;18.70;99.90
26745;DHT22;14342;50.960;13.880;2023-09-19T04:40:36;18.70;99.90
26745;DHT22;14342;50.960;13.880;2023-09-19T04:41:40;18.70;99.90
26745;DHT22;14342;50.960;13.880;2023-09-19T04:42:41;18.80;99.90
26745;DHT22;14342;50.960;13.880;2023-09-19T04:43:42;18.80;99.90
26745;DHT22;14342;50.960;13.880;2023-09-19T04:44:44;18.80;99.90
26745;DHT22;14342;50.960;13.880;2023-09-19T04:45:44;18.80;99.90
26745;DHT22;14342;50.960;13.880;2023-09-19T04:46:47;18.80;99.90
26745;DHT22;14342;50.960;13.880;2023-09-19T04:47:47;18.80;99.90
26745;DHT22;14342;50.960;13.880;2023-09-19T04:48:49;18.70;99.90
26745;DHT22;14342;50.960;13.880;2023-09-19T04:49:49;18.70;99.90
26745;DHT22;14342;50.960;13.880;2023-09-19T04:50:52;18.60;99.90
26745;DHT22;14342;50.960;13.880;2023-09-19T04:51:54;18.70;99.90
26745;DHT22;14342;50.960;13.880;2023-09-19T04:52:55;18.70;99.90
26745;DHT22;14342;50.960;13.880;2023-09-19T04:53:56;18.60;99.90
26745;DHT22;14342;50.960;13.880;2023-09-19T04:54:58;18.50;99.90
26745;DHT22;14342;50.960;13.880;2023-09-19T04:55:59;18.30;99.90
26745;DHT22;14342;50.960;13.880;2023-09-19T04:57:00;18.30;99.90
26745;DHT22;14342;50.960;13.880;2023-09-19T04:58:01;18.30;99.90
26745;DHT22;14342;50.960;13.880;2023-09-19T04:59:04;18.20;99.90
26745;DHT22;14342;50.960;13.880;2023-09-19T05:00:05;18.20;99.90
26745;DHT22;14342;50.960;13.880;2023-09-19T05:01:12;18.30;99.90
26745;DHT22;14342;50.960;13.880;2023-09-19T05:02:15;18.30;99.90
26745;DHT22;14342;50.960;13.880;2023-09-19T05:03:17;18.30;99.90
26745;DHT22;14342;50.960;13.880;2023-09-19T05:04:17;18.20;99.90
26745;DHT22;14342;50.960;13.880;2023-09-19T05:05:19;18.20;99.90
26745;DHT22;14342;50.960;13.880;2023-09-19T05:06:21;18.20;99.90
26745;DHT22;14342;50.960;13.880;2023-09-19T05:07:23;18.20;99.90
26745;DHT22;14342;50.960;13.880;2023-09-19T05:08:26;18.20;99.90
26745;DHT22;14342;50.960;13.880;2023-09-19T05:09:28;18.10;99.90
26745;DHT22;14342;50.960;13.880;2023-09-19T05:10:29;18.10;99.90
26745;DHT22;14342;50.960;13.880;2023-09-19T05:11:30;18.10;99.90
26745;DHT22;14342;50.960;13.880;2023-09-19T05:12:31;18.00;99.90
26745;DHT22;14342;50.960;13.880;2023-09-19T05:13:32;18.00;99.90
26745;DHT22;14342;50.960;13.880;2023-09-19T05:14:33;18.00;99.90
26745;DHT22;14342;50.960;13.880;2023-09-19T05:15:34;18.00;99.90
26745;DHT22;14342;50.960;13.880;2023-09-19T05:16:37;17.90;99.90
26745;DHT22;14342;50.960;13.880;2023-09-19T05:17:37;17.90;99.90
26745;DHT22;14342;50.960;13.880;2023-09-19T05:18:39;18.00;99.90
26745;DHT22;14342;50.960;13.880;2023-09-19T05:19:40;18.00;99.90
26745;DHT22;14342;50.960;13.880;2023-09-19T05:20:42;18.10;99.90
26745;DHT22;14342;50.960;13.880;2023-09-19T05:21:45;18.10;99.90
26745;DHT22;14342;50.960;13.880;2023-09-19T05:22:47;18.10;99.90
26745;DHT22;14342;50.960;13.880;2023-09-19T05:23:47;18.10;99.90
26745;DHT22;14342;50.960;13.880;2023-09-19T05:24:50;18.10;99.90
26745;DHT22;14342;50.960;13.880;2023-09-19T05:25:51;18.20;99.90
26745;DHT22;14342;50.960;13.880;2023-09-19T05:26:53;18.20;99.90
26745;DHT22;14342;50.960;13.880;2023-09-19T05:27:56;18.20;99.90
26745;DHT22;14342;50.960;13.880;2023-09-19T05:28:58;18.20;99.90
26745;DHT22;14342;50.960;13.880;2023-09-19T05:29:59;18.20;99.90
26745;DHT22;14342;50.960;13.880;2023-09-19T05:31:01;18.30;99.90
26745;DHT22;14342;50.960;13.880;2023-09-19T05:32:02;18.30;99.90
26745;DHT22;14342;50.960;13.880;2023-09-19T05:33:05;18.30;99.90
26745;DHT22;14342;50.960;13.880;2023-09-19T05:34:05;18.30;99.90
26745;DHT22;14342;50.960;13.880;2023-09-19T05:35:07;18.30;99.90
26745;DHT22;14342;50.960;13.880;2023-09-19T05:36:09;18.30;99.90
26745;DHT22;14342;50.960;13.880;2023-09-19T05:37:13;18.30;99.90
26745;DHT22;14342;50.960;13.880;2023-09-19T05:38:16;18.30;99.90
26745;DHT22;14342;50.960;13.880;2023-09-19T05:39:19;18.40;99.90
26745;DHT22;14342;50.960;13.880;2023-09-19T05:40:19;18.50;99.90
26745;DHT22;14342;50.960;13.880;2023-09-19T05:41:20;18.50;99.90
26745;DHT22;14342;50.960;13.880;2023-09-19T05:42:22;18.80;99.90
26745;DHT22;14342;50.960;13.880;2023-09-19T05:43:22;18.50;99.90
26745;DHT22;14342;50.960;13.880;2023-09-19T05:44:24;18.50;99.90
26745;DHT22;14342;50.960;13.880;2023-09-19T05:45:25;18.50;99.90
26745;DHT22;14342;50.960;13.880;2023-09-19T05:46:27;18.50;99.90
26745;DHT22;14342;50.960;13.880;2023-09-19T05:47:29;18.50;99.90
26745;DHT22;14342;50.960;13.880;2023-09-19T05:48:31;18.40;99.90
26745;DHT22;14342;50.960;13.880;2023-09-19T05:49:32;18.40;99.90
26745;DHT22;14342;50.960;13.880;2023-09-19T05:50:34;18.40;99.90
26745;DHT22;14342;50.960;13.880;2023-09-19T05:51:35;18.40;99.90
26745;DHT22;14342;50.960;13.880;2023-09-19T05:52:38;18.40;99.90
26745;DHT22;14342;50.960;13.880;2023-09-19T05:53:38;18.40;99.90
26745;DHT22;14342;50.960;13.880;2023-09-19T05:54:42;18.40;99.90
26745;DHT22;14342;50.960;13.880;2023-09-19T05:55:43;18.40;99.90
26745;DHT22;14342;50.960;13.880;2023-09-19T05:56:44;18.40;99.90
26745;DHT22;14342;50.960;13.880;2023-09-19T05:57:49;18.40;99.90
26745;DHT22;14342;50.960;13.880;2023-09-19T05:58:50;18.40;99.90
26745;DHT22;14342;50.960;13.880;2023-09-19T05:59:53;18.50;99.90
26745;DHT22;14342;50.960;13.880;2023-09-19T06:00:54;18.40;99.90
26745;DHT22;14342;50.960;13.880;2023-09-19T06:01:56;18.40;99.90
26745;DHT22;14342;50.960;13.880;2023-09-19T06:02:57;18.40;99.90
26745;DHT22;14342;50.960;13.880;2023-09-19T06:03:59;18.60;99.90
26745;DHT22;14342;50.960;13.880;2023-09-19T06:05:00;18.40;99.90
26745;DHT22;14342;50.960;13.880;2023-09-19T06:06:02;18.50;99.90
26745;DHT22;14342;50.960;13.880;2023-09-19T06:07:03;18.40;99.90
26745;DHT22;14342;50.960;13.880;2023-09-19T06:08:06;18.40;99.90
26745;DHT22;14342;50.960;13.880;2023-09-19T06:09:08;18.50;99.90
26745;DHT22;14342;50.960;13.880;2023-09-19T06:10:09;18.40;99.90
26745;DHT22;14342;50.960;13.880;2023-09-19T06:11:10;18.50;99.90
26745;DHT22;14342;50.960;13.880;2023-09-19T06:12:12;18.50;99.90
26745;DHT22;14342;50.960;13.880;2023-09-19T06:13:17;18.60;99.90
26745;DHT22;14342;50.960;13.880;2023-09-19T06:14:20;18.70;99.90
26745;DHT22;14342;50.960;13.880;2023-09-19T06:15:20;18.70;99.90
26745;DHT22;14342;50.960;13.880;2023-09-19T06:16:23;18.60;99.90
26745;DHT22;14342;50.960;13.880;2023-09-19T06:17:24;18.60;99.90
26745;DHT22;14342;50.960;13.880;2023-09-19T06:18:27;18.60;99.90
26745;DHT22;14342;50.960;13.880;2023-09-19T06:19:29;18.60;99.90
26745;DHT22;14342;50.960;13.880;2023-09-19T06:20:31;18.60;99.90
26745;DHT22;14342;50.960;13.880;2023-09-19T06:21:33;18.60;99.90
26745;DHT22;14342;50.960;13.880;2023-09-19T06:22:35;18.60;99.90
26745;DHT22;14342;50.960;13.880;2023-09-19T06:23:37;18.60;99.90
26745;DHT22;14342;50.960;13.880;2023-09-19T06:24:39;18.60;99.90
26745;DHT22;14342;50.960;13.880;2023-09-19T06:25:40;18.60;99.90
26745;DHT22;14342;50.960;13.880;2023-09-19T06:26:43;18.60;99.90
26745;DHT22;14342;50.960;13.880;2023-09-19T06:27:44;18.70;99.90
26745;DHT22;14342;50.960;13.880;2023-09-19T06:28:46;18.60;99.90
26745;DHT22;14342;50.960;13.880;2023-09-19T06:29:47;18.60;99.90